Time;durP1;ratioP1;P1;durP2;ratioP2;P2;SDS_P1;SDS_P2;PMS_P1;PMS_P2;Temp;Humidity;BMP_temperature;BMP_pressure;BME280_temperature;BME280_humidity;BME280_pressure;Samples;Min_cycle;Max_cycle;Signal;HPM_P1;HPM_P2
2022/04/29 00:01:57;;;;;;;13.32;8.57;;;;;;;10.07;76.71;100755.41;5071413;28;20081;-72
2022/04/29 00:04:23;;;;;;;11.93;9.05;;;;;;;10.12;75.80;100769.16;5071137;28;20111;-73
2022/04/29 00:06:49;;;;;;;13.43;8.35;;;;;;;9.96;76.06;100737.47;5071328;28;20129;-73
2022/04/29 00:09:15;;;;;;;14.15;8.45;;;;;;;10.09;76.18;100774.44;5071141;28;20029;-72
2022/04/29 00:11:40;;;;;;;13.60;7.95;;;;;;;10.06;76.05;100769.28;5071105;28;20404;-73
2022/04/29 00:14:06;;;;;;;11.60;8.00;;;;;;;10.06;75.46;100771.91;5071619;28;20064;-73
2022/04/29 00:16:31;;;;;;;12.43;8.10;;;;;;;10.01;75.88;100765.97;5070951;28;20035;-73
2022/04/29 00:18:58;;;;;;;13.15;8.35;;;;;;;10.02;75.65;100772.88;5071110;28;20048;-73
2022/04/29 00:21:23;;;;;;;9.25;7.25;;;;;;;9.99;75.34;100771.22;5070842;28;20094;-73
2022/04/29 00:23:49;;;;;;;11.25;7.13;;;;;;;9.94;74.18;100775.69;5071073;28;20029;-73
2022/04/29 00:26:14;;;;;;;8.98;6.82;;;;;;;9.86;73.93;100774.16;5071559;28;20541;-73
2022/04/29 00:28:40;;;;;;;11.43;7.03;;;;;;;9.82;74.22;100770.81;5070827;28;20036;-73
2022/04/29 00:31:05;;;;;;;11.23;7.25;;;;;;;9.77;73.97;100767.44;5071062;28;20021;-73
2022/04/29 00:33:30;;;;;;;11.30;7.28;;;;;;;9.79;74.10;100773.47;5073393;28;20024;-72
2022/04/29 00:35:56;;;;;;;10.18;6.80;;;;;;;9.79;74.64;100772.63;5074860;28;20024;-72
2022/04/29 00:38:21;;;;;;;13.75;8.00;;;;;;;9.74;75.22;100768.41;5074506;28;20020;-73
2022/04/29 00:40:48;;;;;;;11.82;8.05;;;;;;;9.57;75.68;100743.72;5074823;28;20032;-73
2022/04/29 00:43:14;;;;;;;13.32;8.60;;;;;;;9.60;76.15;100754.88;5074753;28;20024;-73
2022/04/29 00:45:39;;;;;;;10.52;7.60;;;;;;;9.62;76.21;100765.25;5074360;28;20081;-73
2022/04/29 00:48:08;;;;;;;10.85;8.13;;;;;;;9.56;76.72;100754.97;5074581;28;20384;-73
2022/04/29 00:50:34;;;;;;;15.07;7.82;;;;;;;9.47;78.36;100749.13;5074242;28;20073;-73
2022/04/29 00:53:01;;;;;;;12.18;7.95;;;;;;;9.37;79.08;100744.19;5074415;28;20036;-73
2022/04/29 00:55:28;;;;;;;16.92;7.35;;;;;;;9.42;79.60;100763.13;5074334;28;20021;-73
2022/04/29 00:58:08;;;;;;;9.85;7.95;;;;;;;9.42;79.70;100758.78;5074445;28;20039;-73
2022/04/29 01:00:35;;;;;;;12.82;8.43;;;;;;;9.33;80.06;100732.16;5074183;28;20024;-72
2022/04/29 01:03:03;;;;;;;12.35;8.05;;;;;;;9.47;79.76;100748.25;5074265;28;20075;-73
2022/04/29 01:05:28;;;;;;;11.30;9.38;;;;;;;9.44;78.78;100730.16;5073927;28;20017;-73
2022/04/29 01:07:54;;;;;;;11.68;8.13;;;;;;;9.46;78.82;100738.75;5074351;28;20491;-73
2022/04/29 01:10:21;;;;;;;12.02;7.97;;;;;;;9.45;80.11;100737.91;5074183;28;20040;-73
2022/04/29 01:12:58;;;;;;;12.98;8.68;;;;;;;9.40;80.43;100736.31;5074134;28;20036;-73
2022/04/29 01:15:24;;;;;;;15.93;9.48;;;;;;;9.36;79.95;100735.53;5073682;28;20024;-73
2022/04/29 01:17:52;;;;;;;14.70;10.65;;;;;;;9.33;80.11;100735.59;5073927;28;20042;-73
2022/04/29 01:20:20;;;;;;;17.88;11.10;;;;;;;9.21;80.51;100735.91;5074166;28;20161;-73
2022/04/29 01:22:46;;;;;;;17.30;11.63;;;;;;;9.13;81.70;100727.41;5073795;28;20057;-73
2022/04/29 01:25:12;;;;;;;17.52;11.60;;;;;;;9.16;82.09;100742.94;5073784;28;20021;-73
2022/04/29 01:27:38;;;;;;;17.48;12.35;;;;;;;9.10;82.52;100743.06;5073621;28;20020;-73
2022/04/29 01:30:12;;;;;;;18.50;12.38;;;;;;;9.00;83.55;100734.66;5073747;28;20055;-73
2022/04/29 01:32:39;;;;;;;17.85;12.15;;;;;;;9.04;84.09;100743.22;5073328;28;20066;-73
2022/04/29 01:35:07;;;;;;;17.50;12.65;;;;;;;8.99;85.46;100748.53;5073490;28;20426;-73
2022/04/29 01:37:33;;;;;;;20.42;14.30;;;;;;;8.83;85.95;100728.97;5073398;28;20121;-73
2022/04/29 01:39:59;;;;;;;17.20;13.65;;;;;;;8.85;86.43;100738.47;5073877;28;20025;-72
2022/04/29 01:42:25;;;;;;;20.67;13.43;;;;;;;8.87;86.22;100746.22;5073325;28;20391;-73
2022/04/29 01:44:51;;;;;;;20.02;13.82;;;;;;;8.80;85.98;100735.09;5073405;28;20028;-73
2022/04/29 01:47:16;;;;;;;21.83;13.52;;;;;;;8.77;86.51;100722.19;5073511;28;20035;-73
2022/04/29 01:49:42;;;;;;;17.80;13.70;;;;;;;8.79;87.27;100729.94;5073197;28;20028;-73
2022/04/29 01:52:11;;;;;;;17.50;13.43;;;;;;;8.72;86.96;100721.41;5073402;28;20036;-73
2022/04/29 01:54:37;;;;;;;19.15;12.55;;;;;;;8.75;86.55;100735.19;5073117;28;20020;-73
2022/04/29 01:57:03;;;;;;;17.60;12.65;;;;;;;8.72;87.03;100739.59;5073266;28;20028;-72
2022/04/29 01:59:30;;;;;;;18.50;12.85;;;;;;;8.72;87.66;100735.28;5073160;28;20021;-73
2022/04/29 02:01:56;;;;;;;19.20;13.32;;;;;;;8.66;88.23;100714.63;5073017;28;20037;-72
2022/04/29 02:04:22;;;;;;;16.88;12.35;;;;;;;8.74;88.52;100725.69;5073259;28;20477;-73
2022/04/29 02:06:47;;;;;;;17.30;12.32;;;;;;;8.70;88.31;100729.25;5072732;28;20029;-73
2022/04/29 02:09:12;;;;;;;15.30;12.07;;;;;;;8.71;88.56;100733.53;5072988;28;20453;-73
2022/04/29 02:11:38;;;;;;;17.38;11.85;;;;;;;8.62;89.18;100717.31;5072562;28;20047;-73
2022/04/29 02:14:03;;;;;;;17.80;13.00;;;;;;;8.55;88.74;100713.97;5072854;28;20035;-72
2022/04/29 02:16:29;;;;;;;17.30;12.30;;;;;;;8.52;88.84;100716.66;5072437;28;20085;-73
2022/04/29 02:18:55;;;;;;;18.10;12.32;;;;;;;8.56;89.74;100726.09;5072873;28;20122;-73
2022/04/29 02:21:20;;;;;;;21.55;12.77;;;;;;;8.53;90.48;100731.34;5072815;28;20115;-73
2022/04/29 02:23:46;;;;;;;20.88;12.02;;;;;;;8.37;90.64;100715.22;5072571;28;20032;-72
2022/04/29 02:26:12;;;;;;;17.25;11.85;;;;;;;8.35;91.43;100727.38;5072657;28;20354;-73
2022/04/29 02:28:37;;;;;;;20.10;12.55;;;;;;;8.35;91.35;100731.69;5072393;28;20506;-72
2022/04/29 02:31:03;;;;;;;15.77;11.65;;;;;;;8.32;90.88;100729.16;5072298;28;20078;-73
2022/04/29 02:33:29;;;;;;;16.23;11.15;;;;;;;8.21;90.54;100718.97;5072718;28;20025;-73
2022/04/29 02:35:55;;;;;;;14.23;10.90;;;;;;;8.20;90.03;100727.66;5072415;28;20438;-73
2022/04/29 02:38:20;;;;;;;16.58;10.13;;;;;;;8.15;89.22;100735.53;5072510;28;20036;-72
2022/04/29 02:40:46;;;;;;;16.13;10.60;;;;;;;8.07;88.77;100711.47;5072239;28;20139;-73
2022/04/29 02:43:11;;;;;;;15.15;11.07;;;;;;;8.07;88.01;100716.66;5072236;28;20020;-73
2022/04/29 02:45:37;;;;;;;17.60;10.40;;;;;;;8.05;87.52;100699.41;5071937;28;20028;-73
2022/04/29 02:48:04;;;;;;;15.52;10.50;;;;;;;8.15;85.23;100722.56;5072388;28;20039;-72
2022/04/29 02:50:30;;;;;;;16.40;11.18;;;;;;;8.18;84.02;100726.84;5072071;28;20024;-73
2022/04/29 02:52:55;;;;;;;15.85;10.40;;;;;;;8.13;83.29;100711.38;5072205;28;20028;-73
2022/04/29 02:55:20;;;;;;;19.25;11.73;;;;;;;8.19;82.51;100720.75;5071714;28;20024;-72
2022/04/29 02:57:46;;;;;;;19.40;11.10;;;;;;;8.22;81.64;100720.72;5071929;28;20384;-72
2022/04/29 03:00:12;;;;;;;21.25;12.77;;;;;;;8.28;80.49;100722.31;5072099;28;20434;-72
2022/04/29 03:02:37;;;;;;;15.82;10.15;;;;;;;8.32;80.90;100723.97;5072131;28;20032;-72
2022/04/29 03:05:06;;;;;;;23.15;12.32;;;;;;;8.33;81.00;100717.88;5072176;28;20132;-73
2022/04/29 03:07:33;;;;;;;14.50;12.00;;;;;;;8.32;80.62;100716.19;5071892;28;20107;-73
2022/04/29 03:09:59;;;;;;;16.75;11.52;;;;;;;8.36;80.38;100726.47;5071908;28;20048;-73
2022/04/29 03:12:24;;;;;;;17.58;12.35;;;;;;;8.35;80.10;100713.53;5071832;28;20078;-72
2022/04/29 03:14:50;;;;;;;18.00;11.65;;;;;;;8.45;78.55;100722.88;5071524;28;20024;-72
2022/04/29 03:19:59;;;;;;;18.90;11.70;;;;;;;8.49;78.43;100717.56;5071833;28;20164;-73
2022/04/29 03:22:26;;;;;;;21.38;13.32;;;;;;;8.53;77.71;100728.75;5071742;28;20054;-73
2022/04/29 03:24:51;;;;;;;20.98;12.43;;;;;;;8.49;77.58;100730.56;5071541;28;20112;-73
2022/04/29 03:27:17;;;;;;;18.92;12.02;;;;;;;8.40;77.71;100722.09;5071634;28;20548;-72
2022/04/29 03:29:42;;;;;;;18.35;11.55;;;;;;;8.45;78.22;100731.50;5071644;28;20066;-73
2022/04/29 03:32:08;;;;;;;15.82;12.20;;;;;;;8.44;77.58;100732.41;5071592;28;20443;-73
2022/04/29 03:34:34;;;;;;;15.05;11.40;;;;;;;8.43;77.20;100725.50;5071540;28;20480;-72
2022/04/29 03:36:59;;;;;;;17.35;11.48;;;;;;;8.44;76.73;100732.41;5071748;28;20107;-73
2022/04/29 03:39:25;;;;;;;17.58;12.90;;;;;;;8.45;76.91;100741.88;5071582;28;20145;-72
2022/04/29 03:41:51;;;;;;;19.90;11.60;;;;;;;8.46;76.24;100742.75;5071294;28;20032;-72
2022/04/29 03:44:16;;;;;;;18.73;11.23;;;;;;;8.37;75.31;100725.59;5071818;28;20025;-73
2022/04/29 03:46:42;;;;;;;14.60;10.60;;;;;;;8.47;74.74;100736.69;5071593;28;20187;-73
2022/04/29 03:51:51;;;;;;;21.73;12.27;;;;;;;8.38;74.93;100713.47;5071127;28;20079;-72
2022/04/29 03:54:17;;;;;;;19.92;12.95;;;;;;;8.52;75.70;100734.00;5071660;28;20025;-72
2022/04/29 03:56:42;;;;;;;15.10;12.23;;;;;;;8.41;76.00;100727.25;5071201;28;20029;-73
2022/04/29 03:59:07;;;;;;;15.75;11.80;;;;;;;8.41;75.94;100723.81;5071551;28;20027;-73
2022/04/29 04:01:33;;;;;;;16.33;12.23;;;;;;;8.54;75.44;100732.19;5071240;28;20384;-73
2022/04/29 04:03:58;;;;;;;22.27;12.43;;;;;;;8.86;74.63;100739.31;5071456;28;20479;-72
2022/04/29 04:09:07;;;;;;;17.38;11.32;;;;;;;9.78;70.71;100757.94;5075037;28;20129;-72
2022/04/29 04:11:33;;;;;;;13.77;10.85;;;;;;;9.99;67.28;100755.59;5075023;28;20476;-73
2022/04/29 04:13:58;;;;;;;16.20;10.85;;;;;;;9.88;66.51;100754.19;5075455;28;20024;-73
2022/04/29 04:16:24;;;;;;;19.85;11.93;;;;;;;9.60;66.81;100743.59;5075242;28;20024;-73
2022/04/29 04:18:50;;;;;;;17.73;11.82;;;;;;;9.68;67.54;100762.47;5075024;28;20090;-73
2022/04/29 04:21:16;;;;;;;19.48;10.55;;;;;;;9.63;66.64;100744.38;5075048;28;20040;-73
2022/04/29 04:23:42;;;;;;;15.23;10.95;;;;;;;9.78;66.45;100768.34;5074999;28;20028;-72
2022/04/29 04:26:07;;;;;;;13.00;10.23;;;;;;;9.74;65.88;100747.59;5075217;28;20036;-72
2022/04/29 04:28:33;;;;;;;15.15;10.60;;;;;;;10.02;65.49;100766.81;5074962;28;20016;-73
2022/04/29 04:30:58;;;;;;;28.55;18.98;;;;;;;10.29;64.92;100762.66;5074821;28;20482;-73
2022/04/29 04:33:23;;;;;;;16.52;10.75;;;;;;;10.60;63.09;100749.63;5074940;28;20024;-73
2022/04/29 04:35:49;;;;;;;16.30;10.70;;;;;;;10.76;61.66;100763.06;5074441;28;20051;-73
2022/04/29 04:38:14;;;;;;;18.27;11.25;;;;;;;10.73;62.24;100754.41;5075058;28;20031;-73
2022/04/29 04:40:42;;;;;;;18.25;11.00;;;;;;;10.83;61.58;100735.91;5074749;28;20029;-73
2022/04/29 04:43:08;;;;;;;15.02;10.65;;;;;;;11.31;59.96;100766.56;5074754;28;20498;-73
2022/04/29 04:45:33;;;;;;;15.40;11.27;;;;;;;11.71;58.13;100766.13;5074883;28;20036;-73
2022/04/29 04:47:59;;;;;;;15.60;11.30;;;;;;;12.09;56.68;100771.81;5074544;28;20069;-73
2022/04/29 04:50:24;;;;;;;17.75;10.80;;;;;;;12.82;54.43;100760.47;5074582;28;20039;-72
2022/04/29 04:52:49;;;;;;;15.65;11.02;;;;;;;13.60;51.88;100760.00;5074677;28;20020;-73
2022/04/29 04:55:15;;;;;;;14.45;10.10;;;;;;;14.04;50.03;100765.97;5074803;28;20077;-73
2022/04/29 04:57:40;;;;;;;14.27;10.05;;;;;;;13.88;49.92;100754.47;5074536;28;20460;-73
2022/04/29 05:00:06;;;;;;;14.65;10.60;;;;;;;13.73;50.23;100761.19;5074614;28;20027;-73
2022/04/29 05:02:32;;;;;;;14.25;9.35;;;;;;;13.97;50.33;100761.91;5074532;28;20084;-72
2022/04/29 05:04:58;;;;;;;14.52;9.50;;;;;;;14.38;48.76;100767.97;5074098;28;20518;-73
2022/04/29 05:07:23;;;;;;;15.77;9.82;;;;;;;14.71;48.13;100759.53;5074383;28;20094;-73
2022/04/29 05:09:49;;;;;;;17.42;9.77;;;;;;;15.56;45.84;100766.88;5074050;28;20476;-73
2022/04/29 05:12:14;;;;;;;13.38;8.45;;;;;;;17.09;41.95;100770.22;5074474;28;20021;-72
2022/04/29 05:14:40;;;;;;;13.27;8.63;;;;;;;18.25;38.09;100769.69;5074080;28;20467;-73
2022/04/29 05:17:05;;;;;;;11.00;7.72;;;;;;;17.96;36.93;100767.00;5074383;28;20531;-73
2022/04/29 05:19:31;;;;;;;10.85;8.07;;;;;;;17.30;38.02;100777.84;5073728;28;20070;-72
2022/04/29 05:21:56;;;;;;;10.55;7.28;;;;;;;17.13;38.85;100776.16;5073776;28;20024;-73
2022/04/29 05:24:21;;;;;;;10.25;6.90;;;;;;;17.13;38.13;100770.91;5074140;28;20470;-73
2022/04/29 05:26:47;;;;;;;8.45;6.75;;;;;;;17.11;38.11;100770.16;5073733;28;20035;-73
2022/04/29 05:29:12;;;;;;;14.27;7.28;;;;;;;17.65;37.78;100779.28;5074025;28;20107;-73
2022/04/29 05:31:38;;;;;;;19.60;13.10;;;;;;;18.63;35.53;100767.31;5073799;28;20376;-72
2022/04/29 05:34:06;;;;;;;12.13;7.60;;;;;;;20.18;32.50;100777.44;5073842;28;20028;-73
2022/04/29 05:36:33;;;;;;;9.60;7.10;;;;;;;19.82;31.40;100740.25;5074059;28;20059;-73
2022/04/29 05:44:28;;;;;;;7.47;5.95;;;;;;;18.00;33.29;100779.06;5073741;28;20036;-72
2022/04/29 05:46:53;;;;;;;10.23;5.43;;;;;;;17.77;34.23;100777.78;5073383;28;20024;-73
2022/04/29 05:49:18;;;;;;;8.73;6.40;;;;;;;18.58;33.78;100778.16;5073673;28;20032;-72
2022/04/29 05:51:44;;;;;;;9.13;6.22;;;;;;;20.18;31.62;100790.66;5073617;28;20067;-73
2022/04/29 05:54:09;;;;;;;11.80;6.88;;;;;;;20.56;30.38;100792.47;5073621;28;20460;-73
2022/04/29 05:56:35;;;;;;;11.65;6.82;;;;;;;19.75;30.54;100794.50;5073427;28;20031;-73
2022/04/29 05:59:00;;;;;;;9.80;6.82;;;;;;;19.33;31.82;100776.03;5073173;28;20031;-73
2022/04/29 06:01:25;;;;;;;10.13;6.47;;;;;;;19.66;32.22;100785.38;5073309;28;20024;-73
2022/04/29 06:03:51;;;;;;;7.20;5.72;;;;;;;19.92;30.77;100802.13;5073272;28;20028;-73
2022/04/29 06:06:16;;;;;;;9.60;6.35;;;;;;;19.63;30.94;100773.19;5073418;28;20021;-73
2022/04/29 06:08:41;;;;;;;7.80;6.10;;;;;;;19.87;31.00;100785.75;5073073;28;20029;-73
2022/04/29 06:11:07;;;;;;;9.82;5.78;;;;;;;20.12;30.33;100790.22;5072946;28;20071;-73
2022/04/29 06:13:32;;;;;;;8.38;5.70;;;;;;;20.13;30.73;100789.25;5073132;28;20025;-73
2022/04/29 06:15:59;;;;;;;8.80;6.63;;;;;;;20.08;29.40;100792.22;5072722;28;20481;-73
2022/04/29 06:18:24;;;;;;;11.85;6.82;;;;;;;20.21;29.81;100801.97;5073304;28;20024;-73
2022/04/29 06:20:50;;;;;;;8.90;6.13;;;;;;;20.90;29.65;100793.56;5073184;28;20554;-73
2022/04/29 06:23:15;;;;;;;8.88;5.97;;;;;;;22.35;27.27;100796.97;5073037;28;20075;-73
2022/04/29 06:25:40;;;;;;;8.88;5.90;;;;;;;22.55;26.93;100801.59;5054890;28;20467;-73
2022/04/29 06:28:06;;;;;;;7.00;5.70;;;;;;;21.99;27.08;100803.25;5072834;28;20024;-73
2022/04/29 06:30:31;;;;;;;11.10;7.00;;;;;;;21.57;28.10;100793.09;5071812;28;20108;-73
2022/04/29 06:32:57;;;;;;;12.25;6.80;;;;;;;22.88;26.89;100797.19;5072730;28;20411;-73
2022/04/29 06:35:23;;;;;;;8.00;5.97;;;;;;;24.92;24.47;100786.25;5073070;28;20384;-73
2022/04/29 06:37:48;;;;;;;8.77;6.15;;;;;;;25.46;22.74;100794.81;5072593;28;20074;-73
2022/04/29 06:40:13;;;;;;;8.10;5.80;;;;;;;25.52;23.41;100800.41;5072821;28;20024;-73
2022/04/29 06:42:45;;;;;;;6.65;5.47;;;;;;;25.22;23.14;100797.84;5072647;28;20564;-73
2022/04/29 06:45:13;;;;;;;7.40;5.25;;;;;;;25.61;22.26;100790.72;5072458;28;20419;-73
2022/04/29 06:47:38;;;;;;;6.78;5.57;;;;;;;26.61;21.30;100788.44;5072495;28;20032;-73
2022/04/29 06:50:04;;;;;;;7.53;5.32;;;;;;;29.28;19.58;100791.66;5072209;28;20024;-73
2022/04/29 06:52:29;;;;;;;9.90;4.95;;;;;;;31.50;17.37;100796.34;5072418;28;20024;-73
2022/04/29 06:54:55;;;;;;;6.85;5.20;;;;;;;31.51;16.70;100797.16;5072320;28;20052;-73
2022/04/29 06:57:21;;;;;;;6.80;5.68;;;;;;;31.83;16.47;100796.06;5072275;28;20036;-73
2022/04/29 06:59:47;;;;;;;7.82;5.70;;;;;;;32.00;16.27;100804.88;5072323;28;20032;-74
2022/04/29 07:02:12;;;;;;;8.82;5.45;;;;;;;31.40;16.26;100806.50;5072199;28;20027;-73
2022/04/29 07:04:38;;;;;;;8.82;5.45;;;;;;;32.61;15.88;100819.06;5072345;28;20039;-74
2022/04/29 07:07:05;;;;;;;7.25;5.05;;;;;;;34.06;14.71;100808.19;5071886;28;20391;-74
2022/04/29 07:09:30;;;;;;;7.50;5.13;;;;;;;34.58;14.11;100804.16;5076739;28;20483;-74
2022/04/29 07:11:56;;;;;;;6.85;4.93;;;;;;;34.55;13.88;100803.72;5081781;28;20048;-74
2022/04/29 07:14:22;;;;;;;6.10;5.40;;;;;;;35.57;14.28;100809.09;5080225;28;20488;-72
2022/04/29 07:16:48;;;;;;;7.60;5.10;;;;;;;36.21;12.78;100800.31;5080566;28;20028;-72
2022/04/29 07:19:14;;;;;;;5.93;5.05;;;;;;;35.85;12.92;100805.31;5077975;28;20453;-72
2022/04/29 07:21:39;;;;;;;5.25;4.45;;;;;;;36.50;12.89;100802.78;5081850;28;20066;-72
2022/04/29 07:24:05;;;;;;;6.43;4.88;;;;;;;37.04;12.29;100812.38;5083052;28;20042;-72
2022/04/29 07:26:30;;;;;;;5.03;4.53;;;;;;;36.65;12.69;100812.31;5091995;28;20511;-72
2022/04/29 07:28:56;;;;;;;6.45;5.22;;;;;;;36.54;12.73;100806.75;5091320;28;20028;-73
2022/04/29 07:31:21;;;;;;;6.60;4.93;;;;;;;34.98;13.76;100813.31;5091979;28;20059;-72
2022/04/29 07:33:47;;;;;;;7.15;5.45;;;;;;;35.62;13.61;100811.19;5091761;28;20020;-72
2022/04/29 07:41:45;;;;;;;5.95;5.13;;;;;;;38.58;11.21;100800.03;5091841;28;20070;-73
2022/04/29 07:44:12;;;;;;;6.00;4.82;;;;;;;38.03;11.71;100795.38;5091982;28;20028;-73
2022/04/29 07:46:38;;;;;;;5.70;5.13;;;;;;;39.03;11.35;100802.41;5092017;28;20071;-73
2022/04/29 07:49:04;;;;;;;6.22;4.63;;;;;;;39.50;10.80;100811.56;5091695;28;20028;-73
2022/04/29 07:51:30;;;;;;;7.38;4.40;;;;;;;39.81;11.09;100812.34;5091898;28;20031;-73
2022/04/29 07:53:55;;;;;;;5.80;4.80;;;;;;;39.76;11.00;100809.50;5091778;28;20387;-73
2022/04/29 07:56:21;;;;;;;7.03;4.68;;;;;;;39.83;10.88;100805.59;5092179;28;20675;-73
2022/04/29 07:58:47;;;;;;;5.63;4.00;;;;;;;40.49;10.59;100808.16;5091830;28;20039;-73
2022/04/29 08:01:12;;;;;;;7.32;4.88;;;;;;;39.76;10.23;100810.34;5091900;28;20039;-73
2022/04/29 08:03:39;;;;;;;5.88;4.78;;;;;;;38.56;11.39;100802.13;5091897;28;20387;-72
2022/04/29 08:06:05;;;;;;;7.05;4.38;;;;;;;39.62;11.10;100795.25;5091647;28;20103;-73
2022/04/29 08:08:31;;;;;;;5.07;4.30;;;;;;;38.65;11.09;100800.78;5091796;28;20104;-73
2022/04/29 08:10:56;;;;;;;6.47;4.38;;;;;;;36.60;12.22;100805.88;5091497;28;20104;-72
2022/04/29 08:13:24;;;;;;;8.32;4.85;;;;;;;37.22;12.23;100801.63;5092049;28;20052;-72
2022/04/29 08:15:49;;;;;;;8.77;5.85;;;;;;;36.76;12.20;100796.41;5091567;28;20111;-72
2022/04/29 08:18:16;;;;;;;6.45;5.47;;;;;;;31.50;15.67;100793.63;5091648;28;20239;-72
2022/04/29 08:20:41;;;;;;;6.50;5.40;;;;;;;28.08;18.71;100800.66;5091455;28;20060;-72
2022/04/29 08:23:07;;;;;;;6.18;5.32;;;;;;;26.03;21.46;100782.41;5091475;28;20032;-72
2022/04/29 08:25:33;;;;;;;7.07;5.28;;;;;;;24.77;22.57;100784.94;5085593;28;20467;-72
2022/04/29 08:28:00;;;;;;;8.55;5.68;;;;;;;23.36;24.92;100783.59;5083917;28;20039;-72
2022/04/29 08:30:29;;;;;;;7.03;4.95;;;;;;;22.82;25.89;100787.91;5076201;28;20372;-72
2022/04/29 08:32:54;;;;;;;7.82;4.97;;;;;;;22.39;26.19;100780.69;5071067;28;20547;-72
2022/04/29 08:35:20;;;;;;;11.05;5.30;;;;;;;22.11;27.42;100789.91;5091462;28;20138;-72
2022/04/29 08:37:46;;;;;;;8.32;5.85;;;;;;;21.63;27.56;100786.53;5091486;28;20031;-72
2022/04/29 08:40:12;;;;;;;9.20;6.45;;;;;;;20.91;28.30;100789.13;5091127;28;20487;-72
2022/04/29 08:42:38;;;;;;;8.45;5.32;;;;;;;20.34;29.55;100771.06;5080787;28;20031;-71
2022/04/29 08:45:15;;;;;;;11.60;6.00;;;;;;;19.61;30.37;100777.75;5070845;28;20025;-73
2022/04/29 08:47:44;;;;;;;7.35;5.30;;;;;;;19.28;30.53;100788.72;5019187;28;20033;-74
2022/04/29 08:50:12;;;;;;;7.05;5.07;;;;;;;19.12;31.68;100772.16;5070680;28;20043;-72
2022/04/29 08:52:39;;;;;;;6.55;5.60;;;;;;;19.24;31.67;100775.81;5071091;28;20081;-71
2022/04/29 09:00:38;;;;;;;8.32;5.55;;;;;;;18.93;31.86;100769.84;5092093;28;20058;-73
2022/04/29 09:03:06;;;;;;;10.03;6.17;;;;;;;18.24;33.11;100787.28;5094775;28;20027;-73
2022/04/29 09:05:33;;;;;;;9.63;6.50;;;;;;;17.73;34.49;100781.47;5094818;28;20022;-73
2022/04/29 09:08:01;;;;;;;9.85;6.68;;;;;;;17.61;34.48;100769.91;5094500;28;20479;-74
2022/04/29 09:10:29;;;;;;;10.80;6.25;;;;;;;17.51;35.08;100760.81;5094178;28;20048;-73
2022/04/29 09:12:55;;;;;;;8.13;5.38;;;;;;;17.62;36.19;100763.69;5094212;28;20448;-74
2022/04/29 09:15:21;;;;;;;10.35;6.18;;;;;;;17.56;35.25;100769.28;5094668;28;20115;-73
2022/04/29 09:17:51;;;;;;;8.32;6.13;;;;;;;17.60;35.58;100752.38;5094688;28;20036;-73
2022/04/29 09:20:19;;;;;;;8.98;6.28;;;;;;;17.46;35.34;100754.97;5094540;28;20039;-73
2022/04/29 09:22:47;;;;;;;10.40;5.82;;;;;;;17.59;35.07;100758.59;5051525;28;20076;-73
2022/04/29 09:25:13;;;;;;;8.63;6.03;;;;;;;17.66;35.61;100732.75;5051426;28;20041;-73
2022/04/29 09:27:55;;;;;;;9.32;5.25;;;;;;;17.81;35.15;100768.75;5051565;28;20523;-74
2022/04/29 09:30:41;;;;;;;6.70;5.28;;;;;;;17.99;36.24;100760.69;5032117;28;20076;-73
2022/04/29 09:33:22;;;;;;;8.02;5.50;;;;;;;18.32;36.26;100747.25;5031015;28;20124;-73
2022/04/29 09:35:51;;;;;;;9.02;5.28;;;;;;;18.51;35.34;100750.47;5031548;28;20033;-73
2022/04/29 09:41:02;;;;;;;8.45;5.50;;;;;;;17.96;35.55;100719.56;5031540;28;20099;-73
2022/04/29 09:43:44;;;;;;;9.27;6.43;;;;;;;18.09;36.17;100746.03;5031482;28;20108;-73
2022/04/29 09:46:16;;;;;;;8.15;6.15;;;;;;;17.81;35.61;100750.28;5031191;28;20107;-73
2022/04/29 09:48:54;;;;;;;7.72;5.70;;;;;;;17.85;36.96;100748.34;5031291;28;20071;-73
2022/04/29 09:51:41;;;;;;;9.18;5.78;;;;;;;17.83;35.05;100737.06;5031421;28;20049;-73
2022/04/29 09:54:20;;;;;;;7.97;5.35;;;;;;;17.85;34.79;100753.59;5058073;28;20384;-73
2022/04/29 09:57:00;;;;;;;9.55;4.70;;;;;;;17.92;35.84;100754.94;5073302;28;20035;-73
2022/04/29 09:59:28;;;;;;;8.20;5.55;;;;;;;18.10;35.32;100745.91;5073553;28;20479;-73
2022/04/29 10:01:54;;;;;;;6.93;5.07;;;;;;;18.25;34.94;100751.22;5073336;28;20070;-73
2022/04/29 10:04:20;;;;;;;7.32;5.05;;;;;;;18.25;34.69;100744.16;5072907;28;20066;-73
2022/04/29 10:06:49;;;;;;;6.95;4.72;;;;;;;18.24;33.70;100745.06;5072657;28;20177;-73
2022/04/29 10:09:16;;;;;;;5.65;5.10;;;;;;;18.14;34.68;100739.53;5072984;28;20476;-73
2022/04/29 10:11:44;;;;;;;7.18;5.13;;;;;;;18.06;35.49;100736.50;5072840;28;20062;-73
2022/04/29 10:14:15;;;;;;;6.20;4.78;;;;;;;18.27;36.42;100729.06;5072927;28;20058;-73
2022/04/29 10:16:45;;;;;;;11.68;5.65;;;;;;;18.36;35.46;100735.56;5072975;28;20123;-73
2022/04/29 10:22:00;;;;;;;8.65;4.82;;;;;;;18.01;35.81;100714.84;5072981;28;20495;-73
2022/04/29 10:24:28;;;;;;;5.97;4.90;;;;;;;18.01;35.15;100721.91;5073017;28;20043;-73
2022/04/29 10:26:54;;;;;;;6.72;4.65;;;;;;;17.69;35.07;100735.19;5072910;28;20082;-73
2022/04/29 10:29:20;;;;;;;9.35;5.13;;;;;;;17.67;35.91;100730.00;5072639;28;20036;-73
2022/04/29 10:32:09;;;;;;;6.40;4.60;;;;;;;17.89;36.50;100719.06;5072765;28;20063;-73
2022/04/29 10:34:36;;;;;;;6.53;4.78;;;;;;;18.27;36.48;100726.44;5072931;28;20054;-73
2022/04/29 10:37:09;;;;;;;9.52;5.25;;;;;;;18.36;35.29;100711.84;5072590;28;20424;-73
2022/04/29 10:39:34;;;;;;;9.82;5.00;;;;;;;18.37;35.12;100722.31;5072730;28;20031;-73
2022/04/29 10:42:07;;;;;;;7.10;4.55;;;;;;;18.55;36.24;100701.84;5072448;28;20033;-73
2022/04/29 10:44:33;;;;;;;5.63;5.00;;;;;;;18.83;34.68;100710.66;5072458;28;20435;-73
2022/04/29 10:47:25;;;;;;;7.20;4.75;;;;;;;18.48;33.03;100718.13;5072485;28;20103;-73
2022/04/29 10:49:50;;;;;;;7.20;4.22;;;;;;;17.93;34.14;100715.31;5072381;28;20565;-73
2022/04/29 10:52:27;;;;;;;7.22;4.25;;;;;;;17.80;34.05;100724.88;5072180;28;20032;-73
2022/04/29 10:54:58;;;;;;;6.25;4.22;;;;;;;17.80;35.10;100714.34;5072261;28;20021;-73
2022/04/29 10:57:40;;;;;;;9.98;4.93;;;;;;;17.93;35.46;100707.41;5072506;28;20078;-73
2022/04/29 11:00:11;;;;;;;10.52;5.30;;;;;;;17.63;34.44;100717.09;5072135;28;20502;-73
2022/04/29 11:02:37;;;;;;;7.95;4.40;;;;;;;17.35;36.14;100716.06;5072278;28;20036;-73
2022/04/29 11:05:04;;;;;;;5.93;3.75;;;;;;;17.40;36.32;100726.34;5071941;28;20044;-73
2022/04/29 11:07:37;;;;;;;4.85;3.55;;;;;;;17.43;36.07;100713.84;5072007;28;20037;-73
2022/04/29 11:10:04;;;;;;;6.20;4.03;;;;;;;17.59;36.79;100708.53;5071798;28;20066;-73
2022/04/29 11:12:30;;;;;;;4.80;3.65;;;;;;;17.77;34.64;100701.34;5072078;28;20032;-73
2022/04/29 11:15:18;;;;;;;6.18;3.60;;;;;;;18.01;34.79;100703.47;5072080;28;20139;-73
2022/04/29 11:17:44;;;;;;;4.72;3.28;;;;;;;18.12;33.96;100704.50;5071705;28;20028;-73
2022/04/29 11:20:19;;;;;;;4.95;3.05;;;;;;;18.31;33.12;100706.00;5071740;28;20082;-73
2022/04/29 11:25:59;;;;;;;4.57;3.05;;;;;;;18.59;32.06;100697.22;5072190;28;20055;-73
2022/04/29 11:28:26;;;;;;;4.53;3.20;;;;;;;18.62;32.86;100675.88;5071753;28;20039;-73
2022/04/29 11:31:07;;;;;;;9.00;3.85;;;;;;;18.62;32.64;100697.00;5071968;28;20016;-73
2022/04/29 11:33:32;;;;;;;4.90;3.15;;;;;;;18.35;30.96;100684.63;5071907;28;20124;-73
2022/04/29 11:36:02;;;;;;;6.40;3.40;;;;;;;18.03;30.30;100678.69;5071886;28;20103;-73
2022/04/29 11:38:38;;;;;;;8.03;3.13;;;;;;;17.91;30.44;100687.38;5072247;28;20460;-73
2022/04/29 11:41:04;;;;;;;3.90;3.20;;;;;;;17.71;32.35;100668.28;5071461;28;20029;-73
2022/04/29 11:43:29;;;;;;;6.55;3.75;;;;;;;17.81;34.06;100662.50;5071897;28;20035;-73
2022/04/29 11:46:01;;;;;;;6.90;3.33;;;;;;;17.99;32.10;100682.44;5071843;28;20490;-73
2022/04/29 11:48:26;;;;;;;5.22;3.58;;;;;;;17.95;32.38;100666.00;5071648;28;20107;-73
2022/04/29 11:50:51;;;;;;;7.05;3.47;;;;;;;17.95;31.75;100654.63;5072011;28;20112;-73
2022/04/29 11:53:17;;;;;;;5.93;3.17;;;;;;;17.81;31.20;100667.75;5071348;28;20029;-73
2022/04/29 11:55:50;;;;;;;5.30;3.60;;;;;;;17.77;32.43;100656.56;5071553;28;20115;-73